Time;durP1;ratioP1;P1;durP2;ratioP2;P2;SDS_P1;SDS_P2;PMS_P1;PMS_P2;Temp;Humidity;BMP_temperature;BMP_pressure;BME280_temperature;BME280_humidity;BME280_pressure;Samples;Min_cycle;Max_cycle;Signal;HPM_P1;HPM_P2
2023/11/09 00:00:28;;;;;;;4.25;2.30;;;;;;;;;;10243495;28;20483;-65
2023/11/09 00:05:28;;;;;;;2.75;2.38;;;;;;;;;;10243864;28;20558;-65
2023/11/09 00:10:29;;;;;;;2.30;1.98;;;;;;;;;;10244029;28;20039;-65
2023/11/09 00:15:30;;;;;;;2.33;2.13;;;;;;;;;;10242093;28;20083;-66
2023/11/09 00:20:30;;;;;;;2.65;2.40;;;;;;;;;;10243287;28;20121;-64
2023/11/09 00:25:31;;;;;;;3.47;2.38;;;;;;;;;;10242736;28;20487;-64
2023/11/09 00:30:32;;;;;;;3.42;2.30;;;;;;;;;;10243829;28;20480;-64
2023/11/09 00:35:33;;;;;;;2.30;2.05;;;;;;;;;;10243277;28;20050;-63
2023/11/09 00:40:34;;;;;;;2.35;2.15;;;;;;;;;;10242815;28;20058;-64
2023/11/09 00:45:34;;;;;;;3.03;2.03;;;;;;;;;;10249016;28;20031;-64
2023/11/09 00:50:35;;;;;;;2.35;2.10;;;;;;;;;;10250060;28;20054;-64
2023/11/09 00:55:36;;;;;;;2.60;2.13;;;;;;;;;;10250342;28;20127;-64
2023/11/09 01:00:36;;;;;;;3.25;2.33;;;;;;;;;;10250161;28;20039;-64
2023/11/09 01:05:37;;;;;;;7.22;2.05;;;;;;;;;;10250001;28;20039;-65
2023/11/09 01:10:37;;;;;;;4.68;2.50;;;;;;;;;;10249503;28;20039;-65
2023/11/09 01:15:38;;;;;;;2.72;1.85;;;;;;;;;;10250314;28;20070;-64
2023/11/09 01:20:39;;;;;;;3.90;2.60;;;;;;;;;;10249649;28;20038;-64
2023/11/09 01:25:40;;;;;;;2.72;2.33;;;;;;;;;;10248830;28;20399;-64
2023/11/09 01:30:40;;;;;;;3.97;2.22;;;;;;;;;;10248922;28;20039;-65
2023/11/09 01:35:41;;;;;;;3.22;2.40;;;;;;;;;;10248901;28;20031;-64
2023/11/09 01:40:42;;;;;;;2.35;1.70;;;;;;;;;;10248171;28;20035;-63
2023/11/09 01:45:45;;;;;;;4.88;2.50;;;;;;;;;;10248508;28;20027;-63
2023/11/09 01:50:48;;;;;;;3.60;2.10;;;;;;;;;;10247354;28;20049;-63
2023/11/09 01:55:49;;;;;;;3.00;2.05;;;;;;;;;;10246916;28;20062;-63
2023/11/09 02:00:51;;;;;;;1.90;1.80;;;;;;;;;;10248740;28;20031;-66
2023/11/09 02:05:51;;;;;;;3.17;2.13;;;;;;;;;;10247464;28;20053;-65
2023/11/09 02:10:52;;;;;;;2.33;1.92;;;;;;;;;;10247771;28;20030;-65
2023/11/09 02:15:54;;;;;;;5.32;1.98;;;;;;;;;;10261975;28;20031;-65
2023/11/09 02:20:55;;;;;;;5.00;2.25;;;;;;;;;;10246795;28;20046;-65
2023/11/09 02:25:56;;;;;;;2.55;2.13;;;;;;;;;;10245795;28;20050;-65
2023/11/09 02:30:57;;;;;;;1.80;1.70;;;;;;;;;;10246789;28;20042;-65
2023/11/09 02:35:58;;;;;;;3.20;1.98;;;;;;;;;;10246458;28;20023;-67
2023/11/09 02:40:58;;;;;;;1.90;1.80;;;;;;;;;;10245411;28;20035;-65
2023/11/09 02:45:59;;;;;;;2.15;1.95;;;;;;;;;;10246036;28;20035;-67
2023/11/09 02:50:59;;;;;;;2.50;1.95;;;;;;;;;;10246032;28;20042;-65
2023/11/09 02:56:00;;;;;;;2.67;2.22;;;;;;;;;;10244471;28;20027;-65
2023/11/09 03:01:01;;;;;;;2.50;2.05;;;;;;;;;;10245613;28;20039;-65
2023/11/09 03:06:02;;;;;;;2.38;2.10;;;;;;;;;;10245590;28;20118;-66
2023/11/09 03:11:03;;;;;;;2.42;1.88;;;;;;;;;;10245511;28;20035;-66
2023/11/09 03:16:03;;;;;;;2.47;1.90;;;;;;;;;;10245738;28;20031;-66
2023/11/09 03:21:04;;;;;;;2.63;2.08;;;;;;;;;;10243800;28;20482;-64
2023/11/09 03:26:05;;;;;;;2.22;1.95;;;;;;;;;;10244249;28;20614;-66
2023/11/09 03:31:06;;;;;;;3.08;2.03;;;;;;;;;;10244955;28;20266;-67
2023/11/09 03:36:06;;;;;;;2.25;2.05;;;;;;;;;;10244685;28;20050;-65
2023/11/09 03:41:10;;;;;;;2.25;2.00;;;;;;;;;;10244212;28;20035;-65
2023/11/09 03:46:12;;;;;;;1.88;1.77;;;;;;;;;;10244100;28;20378;-65
2023/11/09 03:51:13;;;;;;;3.17;2.30;;;;;;;;;;10243908;28;20051;-65
2023/11/09 03:56:15;;;;;;;1.85;1.70;;;;;;;;;;10244375;28;20480;-65
2023/11/09 04:01:15;;;;;;;1.98;1.80;;;;;;;;;;10244606;28;20031;-65
2023/11/09 04:06:17;;;;;;;2.35;1.90;;;;;;;;;;10243808;28;20083;-64
2023/11/09 04:11:18;;;;;;;3.35;1.95;;;;;;;;;;10244109;28;20071;-65
2023/11/09 04:16:18;;;;;;;4.15;1.95;;;;;;;;;;10244410;28;20039;-65
2023/11/09 04:21:19;;;;;;;2.35;2.10;;;;;;;;;;10250482;28;20502;-64
2023/11/09 04:26:20;;;;;;;3.83;1.80;;;;;;;;;;10251274;28;20027;-65
2023/11/09 04:31:21;;;;;;;5.22;1.88;;;;;;;;;;10251817;28;20040;-64
2023/11/09 04:36:23;;;;;;;2.05;1.85;;;;;;;;;;10250878;28;20153;-65
2023/11/09 04:41:25;;;;;;;1.92;1.63;;;;;;;;;;10250810;28;20090;-64
2023/11/09 04:46:29;;;;;;;2.22;1.85;;;;;;;;;;10250898;28;20039;-64
2023/11/09 04:51:32;;;;;;;2.95;1.90;;;;;;;;;;10250703;28;20298;-63
2023/11/09 04:56:42;;;;;;;1.95;1.75;;;;;;;;;;10250161;28;20494;-63
2023/11/09 05:07:02;;;;;;;1.90;1.70;;;;;;;;;;10250651;28;20035;-64
2023/11/09 05:12:03;;;;;;;2.67;1.88;;;;;;;;;;10250672;28;20391;-64
2023/11/09 05:17:03;;;;;;;2.00;1.90;;;;;;;;;;10250452;28;20037;-64
2023/11/09 05:22:04;;;;;;;2.88;2.08;;;;;;;;;;10249456;28;20030;-64
2023/11/09 05:27:07;;;;;;;3.45;1.88;;;;;;;;;;10249589;28;20089;-64
2023/11/09 05:32:08;;;;;;;1.83;1.73;;;;;;;;;;10264196;28;20133;-64
2023/11/09 05:37:08;;;;;;;2.28;2.05;;;;;;;;;;10248619;28;20090;-63
2023/11/09 05:42:09;;;;;;;2.85;1.98;;;;;;;;;;10249220;28;20086;-63
2023/11/09 05:47:10;;;;;;;2.10;1.70;;;;;;;;;;10249018;28;20361;-64
2023/11/09 05:52:10;;;;;;;2.15;1.98;;;;;;;;;;10248032;28;20043;-65
2023/11/09 05:57:11;;;;;;;2.53;1.92;;;;;;;;;;10248977;28;20062;-66
2023/11/09 06:02:12;;;;;;;3.20;1.85;;;;;;;;;;10247381;28;20414;-65
2023/11/09 06:07:13;;;;;;;1.88;1.77;;;;;;;;;;10248691;28;20423;-65
2023/11/09 06:12:15;;;;;;;3.50;1.77;;;;;;;;;;10247180;28;20596;-65
2023/11/09 06:17:16;;;;;;;2.13;1.98;;;;;;;;;;10247719;28;20384;-64
2023/11/09 06:22:17;;;;;;;1.77;1.63;;;;;;;;;;10247683;28;20031;-65
2023/11/09 06:27:17;;;;;;;1.88;1.77;;;;;;;;;;10247464;28;20027;-65
2023/11/09 06:32:19;;;;;;;1.70;1.60;;;;;;;;;;10247414;28;20464;-64
2023/11/09 06:37:20;;;;;;;1.80;1.70;;;;;;;;;;10247355;28;20023;-66
2023/11/09 06:42:22;;;;;;;2.00;1.85;;;;;;;;;;10246443;28;20031;-65
2023/11/09 06:47:23;;;;;;;1.90;1.70;;;;;;;;;;10246511;28;20479;-65
2023/11/09 06:52:25;;;;;;;2.05;1.73;;;;;;;;;;10245571;28;20122;-66
2023/11/09 06:57:25;;;;;;;2.63;1.50;;;;;;;;;;10244570;28;20047;-65
2023/11/09 07:02:26;;;;;;;1.70;1.60;;;;;;;;;;10250901;28;20093;-65
2023/11/09 07:07:27;;;;;;;2.08;1.48;;;;;;;;;;10243183;28;20034;-65
2023/11/09 07:12:28;;;;;;;2.25;1.60;;;;;;;;;;10241991;28;20027;-65
2023/11/09 07:17:29;;;;;;;2.00;1.55;;;;;;;;;;10242743;28;20102;-66
2023/11/09 07:22:29;;;;;;;1.75;1.65;;;;;;;;;;10243572;28;20085;-66
2023/11/09 07:27:30;;;;;;;1.63;1.52;;;;;;;;;;10244053;28;20035;-65
2023/11/09 07:32:30;;;;;;;1.75;1.55;;;;;;;;;;10243454;28;20039;-64
2023/11/09 07:37:31;;;;;;;3.38;1.70;;;;;;;;;;10243925;28;20058;-64
2023/11/09 07:42:32;;;;;;;1.83;1.40;;;;;;;;;;10243639;28;20034;-63
2023/11/09 07:47:32;;;;;;;1.63;1.52;;;;;;;;;;10243318;28;20054;-63
2023/11/09 07:52:33;;;;;;;1.85;1.73;;;;;;;;;;10191838;28;1551774;-64
2023/11/09 07:57:36;;;;;;;2.10;1.90;;;;;;;;;;10253521;28;20255;-63
2023/11/09 08:02:41;;;;;;;2.03;1.60;;;;;;;;;;10258303;28;20031;-64
2023/11/09 08:07:44;;;;;;;2.30;1.90;;;;;;;;;;10259277;28;20043;-64
2023/11/09 08:12:44;;;;;;;4.50;1.48;;;;;;;;;;10251908;28;20038;-64
2023/11/09 08:17:47;;;;;;;2.05;1.63;;;;;;;;;;10254471;28;20475;-64
2023/11/09 08:22:47;;;;;;;2.08;1.85;;;;;;;;;;10256954;28;20035;-65
2023/11/09 08:27:51;;;;;;;15.48;1.75;;;;;;;;;;10251962;28;20476;-64
2023/11/09 08:32:52;;;;;;;6.38;1.60;;;;;;;;;;10263159;28;20093;-64
2023/11/09 08:37:52;;;;;;;1.60;1.50;;;;;;;;;;10246697;28;20035;-64
2023/11/09 08:42:54;;;;;;;1.60;1.50;;;;;;;;;;10263329;28;20031;-64
2023/11/09 08:47:55;;;;;;;1.70;1.60;;;;;;;;;;10253720;28;20502;-64
2023/11/09 08:52:56;;;;;;;1.92;1.70;;;;;;;;;;10265614;28;20130;-64
2023/11/09 08:57:59;;;;;;;1.73;1.60;;;;;;;;;;10251594;28;20039;-62
2023/11/09 09:03:01;;;;;;;3.72;1.80;;;;;;;;;;10254108;28;20118;-61
2023/11/09 09:08:01;;;;;;;9.18;2.35;;;;;;;;;;10248335;28;20035;-63
2023/11/09 09:13:02;;;;;;;1.90;1.73;;;;;;;;;;10249599;28;20408;-63
2023/11/09 09:18:06;;;;;;;3.95;2.30;;;;;;;;;;10247698;28;20483;-62
2023/11/09 09:23:07;;;;;;;5.55;2.05;;;;;;;;;;10265053;28;20395;-62
2023/11/09 09:28:09;;;;;;;4.75;1.98;;;;;;;;;;10249553;28;20171;-62
2023/11/09 09:33:10;;;;;;;2.95;2.00;;;;;;;;;;10248381;28;20122;-62
2023/11/09 09:38:11;;;;;;;5.15;2.28;;;;;;;;;;10253185;28;20039;-60
2023/11/09 09:43:13;;;;;;;5.75;1.88;;;;;;;;;;10252290;28;20027;-63
2023/11/09 09:48:13;;;;;;;2.97;1.88;;;;;;;;;;10247028;28;20038;-61
2023/11/09 09:53:20;;;;;;;5.72;1.95;;;;;;;;;;10250956;28;20415;-60
2023/11/09 09:58:21;;;;;;;2.95;2.25;;;;;;;;;;10238934;28;20114;-60
2023/11/09 10:03:25;;;;;;;4.00;2.10;;;;;;;;;;10239455;28;20031;-60
2023/11/09 10:08:26;;;;;;;3.72;2.47;;;;;;;;;;10246500;28;20024;-61
2023/11/09 10:13:28;;;;;;;11.07;2.55;;;;;;;;;;10257237;28;20023;-60
2023/11/09 10:18:31;;;;;;;5.78;2.13;;;;;;;;;;10234815;28;20035;-61
2023/11/09 10:23:32;;;;;;;4.85;2.25;;;;;;;;;;10245879;28;20042;-61
2023/11/09 10:28:36;;;;;;;4.43;2.40;;;;;;;;;;10245724;28;20406;-61
2023/11/09 10:33:38;;;;;;;4.00;1.90;;;;;;;;;;10243961;28;20038;-61
2023/11/09 10:38:42;;;;;;;4.63;2.03;;;;;;;;;;10244825;28;20035;-61
2023/11/09 10:43:45;;;;;;;2.47;2.17;;;;;;;;;;10241614;28;20118;-61
2023/11/09 10:48:50;;;;;;;7.78;2.08;;;;;;;;;;10243887;28;20039;-60
2023/11/09 10:53:52;;;;;;;3.10;2.42;;;;;;;;;;10237025;28;20039;-60
2023/11/09 10:58:56;;;;;;;5.60;2.40;;;;;;;;;;10248501;28;20070;-61
2023/11/09 11:03:59;;;;;;;6.13;2.38;;;;;;;;;;10248092;28;20028;-61
2023/11/09 11:09:09;;;;;;;4.53;2.83;;;;;;;;;;10234856;28;20023;-61
2023/11/09 11:14:14;;;;;;;7.80;3.03;;;;;;;;;;10244026;28;20395;-61
2023/11/09 11:19:55;;;;;;;7.60;2.70;;;;;;;;;;10243570;28;20031;-60
2023/11/09 11:25:36;;;;;;;5.93;2.30;;;;;;;;;;10245042;28;20035;-61
2023/11/09 11:30:41;;;;;;;3.65;2.70;;;;;;;;;;10243308;28;20183;-61
2023/11/09 11:35:48;;;;;;;5.22;2.20;;;;;;;;;;10244653;28;20070;-61
2023/11/09 11:41:05;;;;;;;4.50;2.50;;;;;;;;;;10241848;28;20133;-62
2023/11/09 11:46:17;;;;;;;2.53;2.30;;;;;;;;;;10237973;28;20114;-64
2023/11/09 11:51:18;;;;;;;3.30;2.30;;;;;;;;;;10241288;28;20043;-61
2023/11/09 11:56:30;;;;;;;2.33;1.95;;;;;;;;;;10248648;28;20031;-62
2023/11/09 12:01:33;;;;;;;2.83;2.20;;;;;;;;;;10236784;28;20031;-62
2023/11/09 12:06:41;;;;;;;5.30;2.17;;;;;;;;;;10257224;28;20035;-61
2023/11/09 12:11:45;;;;;;;5.70;2.40;;;;;;;;;;10245871;28;20390;-62
2023/11/09 12:16:46;;;;;;;5.30;2.33;;;;;;;;;;10251009;28;20471;-60
2023/11/09 12:21:47;;;;;;;4.53;2.10;;;;;;;;;;10250618;28;20033;-61
2023/11/09 12:26:47;;;;;;;4.97;2.38;;;;;;;;;;10253227;28;20506;-61
2023/11/09 12:31:48;;;;;;;3.70;2.53;;;;;;;;;;10236398;28;20027;-60
2023/11/09 12:36:51;;;;;;;3.53;2.40;;;;;;;;;;10240963;28;20120;-60
2023/11/09 12:41:53;;;;;;;4.28;2.10;;;;;;;;;;10243940;28;20474;-60
2023/11/09 12:46:56;;;;;;;3.15;2.20;;;;;;;;;;10248687;28;20031;-60
2023/11/09 12:52:01;;;;;;;3.60;2.17;;;;;;;;;;10247165;28;20138;-61
2023/11/09 12:57:06;;;;;;;4.65;2.47;;;;;;;;;;10247290;28;20039;-60
2023/11/09 13:02:14;;;;;;;2.80;2.10;;;;;;;;;;10247006;28;20046;-61
2023/11/09 13:07:15;;;;;;;3.47;2.50;;;;;;;;;;10257735;28;20115;-61
2023/11/09 13:12:28;;;;;;;5.10;2.40;;;;;;;;;;10253466;28;20031;-61
2023/11/09 13:17:29;;;;;;;3.22;2.35;;;;;;;;;;10248211;28;20443;-61
2023/11/09 13:22:37;;;;;;;2.67;2.15;;;;;;;;;;10249915;28;20034;-61
2023/11/09 13:27:38;;;;;;;3.13;2.15;;;;;;;;;;10244562;28;20035;-61
2023/11/09 13:32:39;;;;;;;6.47;2.10;;;;;;;;;;10245914;28;20031;-61
2023/11/09 13:37:40;;;;;;;3.47;2.00;;;;;;;;;;10247820;28;20055;-61
2023/11/09 13:42:41;;;;;;;6.00;2.40;;;;;;;;;;10246628;28;20468;-62
2023/11/09 13:47:43;;;;;;;4.13;1.95;;;;;;;;;;10236956;28;20050;-61
2023/11/09 13:52:50;;;;;;;2.85;2.10;;;;;;;;;;10246597;28;20039;-60
2023/11/09 13:57:50;;;;;;;2.63;1.92;;;;;;;;;;10241897;28;20479;-62
2023/11/09 14:02:51;;;;;;;8.23;2.22;;;;;;;;;;10246103;28;20035;-60
2023/11/09 14:07:54;;;;;;;4.72;2.22;;;;;;;;;;10241947;28;20868;-61
2023/11/09 14:13:09;;;;;;;10.63;2.00;;;;;;;;;;10247197;28;20042;-62
2023/11/09 14:23:25;;;;;;;2.97;2.00;;;;;;;;;;10243042;28;20050;-61
2023/11/09 14:28:27;;;;;;;7.10;1.70;;;;;;;;;;10242256;28;20038;-61
2023/11/09 14:33:30;;;;;;;3.13;1.90;;;;;;;;;;10245456;28;20738;-62
2023/11/09 14:38:31;;;;;;;4.45;1.95;;;;;;;;;;10238872;28;20094;-62
2023/11/09 14:43:33;;;;;;;4.55;2.35;;;;;;;;;;10243444;28;20086;-62
2023/11/09 14:48:38;;;;;;;1.90;1.77;;;;;;;;;;10254588;28;20101;-63
2023/11/09 14:53:39;;;;;;;5.70;2.20;;;;;;;;;;10249424;28;20043;-61
2023/11/09 14:58:42;;;;;;;4.35;2.22;;;;;;;;;;10257491;28;20039;-61
2023/11/09 15:03:45;;;;;;;4.55;2.10;;;;;;;;;;10249266;28;20054;-61
2023/11/09 15:08:45;;;;;;;7.70;2.65;;;;;;;;;;10240701;28;20027;-60
2023/11/09 15:13:46;;;;;;;4.15;1.98;;;;;;;;;;10244132;28;20046;-61
2023/11/09 15:18:47;;;;;;;3.92;2.08;;;;;;;;;;10231007;28;20035;-61
2023/11/09 15:23:48;;;;;;;3.63;2.05;;;;;;;;;;10236955;28;20039;-61
2023/11/09 15:28:49;;;;;;;2.83;1.77;;;;;;;;;;10245031;28;20500;-61
2023/11/09 15:33:49;;;;;;;2.25;1.70;;;;;;;;;;10235142;28;20032;-61
2023/11/09 15:39:01;;;;;;;2.58;2.00;;;;;;;;;;10244954;28;20316;-62
2023/11/09 15:44:12;;;;;;;3.25;1.85;;;;;;;;;;10233400;28;20032;-61
2023/11/09 15:49:13;;;;;;;6.53;2.10;;;;;;;;;;10244709;28;20028;-62
2023/11/09 15:54:22;;;;;;;3.55;1.75;;;;;;;;;;10246302;28;20118;-62
2023/11/09 15:59:26;;;;;;;3.85;2.05;;;;;;;;;;10256977;28;20081;-60
2023/11/09 16:04:27;;;;;;;5.68;3.97;;;;;;;;;;10240759;28;20590;-61
2023/11/09 16:09:28;;;;;;;14.43;6.40;;;;;;;;;;10244417;28;20024;-61
2023/11/09 16:14:28;;;;;;;12.35;6.30;;;;;;;;;;10242967;28;20219;-61
2023/11/09 16:19:29;;;;;;;22.17;8.80;;;;;;;;;;10250906;28;20118;-62
2023/11/09 16:24:31;;;;;;;18.02;8.50;;;;;;;;;;10076000;28;20138;-62
2023/11/09 16:29:32;;;;;;;21.55;8.35;;;;;;;;;;10211588;28;20082;-63
2023/11/09 16:34:32;;;;;;;15.63;7.88;;;;;;;;;;10242299;28;20407;-61
2023/11/09 16:39:35;;;;;;;12.13;7.13;;;;;;;;;;10247043;28;20274;-63
2023/11/09 16:44:35;;;;;;;16.25;8.32;;;;;;;;;;10250229;28;20166;-63
2023/11/09 16:49:36;;;;;;;15.68;6.95;;;;;;;;;;10250770;28;20086;-60
2023/11/09 16:54:37;;;;;;;10.27;6.18;;;;;;;;;;10249598;28;20043;-62
2023/11/09 16:59:37;;;;;;;11.75;6.55;;;;;;;;;;10235257;28;20046;-63
2023/11/09 17:04:38;;;;;;;12.68;6.07;;;;;;;;;;10249666;28;20065;-63
2023/11/09 17:09:39;;;;;;;8.80;5.13;;;;;;;;;;10216739;28;20274;-62
2023/11/09 17:14:40;;;;;;;6.80;4.38;;;;;;;;;;10245234;28;20043;-63
2023/11/09 17:19:41;;;;;;;9.75;4.88;;;;;;;;;;10247174;28;20035;-62
2023/11/09 17:24:42;;;;;;;8.57;4.38;;;;;;;;;;10257437;28;20136;-63
2023/11/09 17:29:42;;;;;;;6.82;4.05;;;;;;;;;;10191574;28;20058;-61
2023/11/09 17:34:43;;;;;;;11.40;4.20;;;;;;;;;;10246889;28;20054;-62
2023/11/09 17:39:44;;;;;;;10.50;4.05;;;;;;;;;;10240362;28;20439;-64
2023/11/09 17:44:45;;;;;;;8.07;4.15;;;;;;;;;;10248115;28;20061;-63
2023/11/09 17:49:48;;;;;;;5.80;3.75;;;;;;;;;;10255625;28;20489;-62
2023/11/09 17:54:48;;;;;;;15.23;4.03;;;;;;;;;;10257223;28;20031;-63
2023/11/09 17:59:49;;;;;;;6.63;4.22;;;;;;;;;;10259108;28;20039;-62
2023/11/09 18:04:50;;;;;;;6.40;3.70;;;;;;;;;;10250623;28;20062;-62
2023/11/09 18:09:51;;;;;;;5.20;3.58;;;;;;;;;;10259756;28;20062;-61
2023/11/09 18:14:56;;;;;;;5.72;3.25;;;;;;;;;;10257559;28;20023;-62
2023/11/09 18:19:57;;;;;;;6.85;3.22;;;;;;;;;;10247467;28;20037;-64
2023/11/09 18:24:57;;;;;;;8.82;3.58;;;;;;;;;;10273176;28;20039;-62
2023/11/09 18:29:59;;;;;;;6.40;3.10;;;;;;;;;;10263392;28;20450;-62
2023/11/09 18:35:03;;;;;;;5.18;3.35;;;;;;;;;;10246385;28;20039;-63
2023/11/09 18:40:06;;;;;;;4.60;3.05;;;;;;;;;;10248168;28;20101;-62
2023/11/09 18:45:07;;;;;;;6.38;3.88;;;;;;;;;;10247577;28;20166;-63
2023/11/09 18:50:09;;;;;;;5.93;3.25;;;;;;;;;;10238823;28;20055;-63
2023/11/09 18:55:10;;;;;;;3.97;3.00;;;;;;;;;;10256998;28;20054;-63
2023/11/09 19:00:12;;;;;;;5.63;2.92;;;;;;;;;;10241928;28;20042;-64
2023/11/09 19:05:12;;;;;;;3.58;2.90;;;;;;;;;;10247067;28;20035;-63
2023/11/09 19:10:13;;;;;;;6.55;3.30;;;;;;;;;;10261287;28;20030;-63
2023/11/09 19:15:13;;;;;;;5.18;2.90;;;;;;;;;;10242863;29;20023;-63
2023/11/09 19:20:15;;;;;;;4.78;3.45;;;;;;;;;;10243047;28;20035;-64
2023/11/09 19:25:16;;;;;;;10.30;3.67;;;;;;;;;;10241541;29;20051;-65
2023/11/09 19:30:22;;;;;;;5.97;3.42;;;;;;;;;;10240549;28;20031;-66
2023/11/09 19:35:24;;;;;;;9.30;4.72;;;;;;;;;;10240302;28;20380;-66
2023/11/09 19:40:25;;;;;;;6.18;4.00;;;;;;;;;;10237136;28;20039;-66
2023/11/09 19:45:27;;;;;;;9.63;4.32;;;;;;;;;;10241095;28;20043;-66
2023/11/09 19:50:28;;;;;;;6.75;4.65;;;;;;;;;;10242384;28;20130;-66
2023/11/09 19:55:28;;;;;;;7.38;4.38;;;;;;;;;;10252665;28;20031;-66
2023/11/09 20:00:29;;;;;;;7.78;4.22;;;;;;;;;;10242690;28;20039;-66
2023/11/09 20:05:31;;;;;;;7.05;4.80;;;;;;;;;;10239301;28;20019;-65
2023/11/09 20:10:31;;;;;;;11.98;4.75;;;;;;;;;;10249793;28;20395;-66
2023/11/09 20:15:33;;;;;;;6.57;4.50;;;;;;;;;;10245716;29;20031;-66
2023/11/09 20:20:34;;;;;;;14.75;4.15;;;;;;;;;;10249938;28;20043;-66
2023/11/09 20:25:37;;;;;;;5.95;3.78;;;;;;;;;;10250280;28;20042;-66
2023/11/09 20:30:38;;;;;;;5.07;3.72;;;;;;;;;;10252132;29;20043;-66
2023/11/09 20:35:39;;;;;;;6.70;3.95;;;;;;;;;;10249604;28;20522;-66
2023/11/09 20:40:39;;;;;;;5.65;3.75;;;;;;;;;;10249473;28;20035;-66
2023/11/09 20:45:41;;;;;;;8.35;4.28;;;;;;;;;;10247201;28;20034;-66
2023/11/09 20:50:41;;;;;;;13.68;4.10;;;;;;;;;;10247166;29;20067;-66
2023/11/09 20:55:42;;;;;;;5.70;4.28;;;;;;;;;;10247297;29;20040;-66
2023/11/09 21:00:46;;;;;;;11.20;3.65;;;;;;;;;;10247553;28;20041;-64
2023/11/09 21:05:48;;;;;;;9.63;3.78;;;;;;;;;;10241363;28;20023;-66
2023/11/09 21:10:49;;;;;;;7.10;4.20;;;;;;;;;;10245152;28;20126;-66
2023/11/09 21:15:51;;;;;;;6.68;4.10;;;;;;;;;;10240516;28;20503;-66
2023/11/09 21:20:52;;;;;;;7.30;3.90;;;;;;;;;;10249065;28;20058;-67
2023/11/09 21:25:52;;;;;;;5.82;4.00;;;;;;;;;;10239303;28;20042;-67
2023/11/09 21:30:53;;;;;;;14.10;4.15;;;;;;;;;;10243959;28;20039;-66
2023/11/09 21:35:53;;;;;;;5.75;3.70;;;;;;;;;;10237241;28;20035;-66
2023/11/09 21:40:54;;;;;;;8.57;4.05;;;;;;;;;;10245993;28;20038;-66
2023/11/09 21:45:55;;;;;;;6.63;3.65;;;;;;;;;;10234534;28;20259;-66
2023/11/09 21:50:56;;;;;;;6.03;3.17;;;;;;;;;;10247583;28;20431;-66
2023/11/09 21:55:57;;;;;;;9.00;3.58;;;;;;;;;;10249272;28;20023;-66
2023/11/09 22:00:58;;;;;;;9.65;3.17;;;;;;;;;;10247208;28;20039;-66
2023/11/09 22:05:59;;;;;;;9.13;4.00;;;;;;;;;;10248163;28;20502;-66
2023/11/09 22:10:59;;;;;;;8.23;3.38;;;;;;;;;;10247487;28;20035;-66
2023/11/09 22:16:00;;;;;;;7.55;3.25;;;;;;;;;;10242436;28;20039;-67
2023/11/09 22:21:00;;;;;;;5.05;3.38;;;;;;;;;;10248447;28;20031;-65
2023/11/09 22:26:01;;;;;;;6.03;3.30;;;;;;;;;;10247205;28;20038;-65
2023/11/09 22:31:02;;;;;;;5.97;3.15;;;;;;;;;;10236622;28;20035;-69
2023/11/09 22:36:03;;;;;;;6.97;3.28;;;;;;;;;;10245699;28;20035;-67
2023/11/09 22:41:04;;;;;;;5.97;3.17;;;;;;;;;;10241520;28;20024;-70
2023/11/09 22:46:04;;;;;;;6.88;3.22;;;;;;;;;;10246296;28;20032;-67
2023/11/09 22:51:05;;;;;;;6.18;3.28;;;;;;;;;;10258553;28;20054;-64
2023/11/09 22:56:06;;;;;;;18.95;3.40;;;;;;;;;;10241059;28;20434;-64
2023/11/09 23:01:06;;;;;;;15.98;3.33;;;;;;;;;;10250227;28;20039;-65
2023/11/09 23:06:07;;;;;;;8.05;3.28;;;;;;;;;;10238568;28;20915;-67
2023/11/09 23:11:08;;;;;;;7.88;3.22;;;;;;;;;;10245376;28;20027;-66
2023/11/09 23:16:09;;;;;;;6.80;2.88;;;;;;;;;;10240482;28;20023;-67
2023/11/09 23:21:09;;;;;;;7.68;2.80;;;;;;;;;;10242055;28;20042;-66
2023/11/09 23:26:13;;;;;;;6.43;2.60;;;;;;;;;;10240129;28;20023;-66
2023/11/09 23:31:14;;;;;;;18.67;2.75;;;;;;;;;;10241736;28;20508;-69
2023/11/09 23:36:15;;;;;;;7.03;2.92;;;;;;;;;;10242187;29;20031;-69
2023/11/09 23:41:17;;;;;;;5.88;2.47;;;;;;;;;;10243826;29;20141;-67
2023/11/09 23:46:17;;;;;;;4.40;2.40;;;;;;;;;;10243302;29;20098;-67
2023/11/09 23:51:22;;;;;;;5.90;2.53;;;;;;;;;;10243296;29;20547;-67
2023/11/09 23:56:23;;;;;;;4.32;2.47;;;;;;;;;;10245472;28;20031;-67
